sensor_id;sensor_type;location;lat;lon;timestamp;temperature;humidity
15083;DHT22;7640;53.116;6.878;2024-01-15T00:00:02;2.20;99.90
15083;DHT22;7640;53.116;6.878;2024-01-15T00:02:31;2.20;99.90
15083;DHT22;7640;53.116;6.878;2024-01-15T00:05:00;2.20;99.90
15083;DHT22;7640;53.116;6.878;2024-01-15T00:07:29;2.30;99.90
15083;DHT22;7640;53.116;6.878;2024-01-15T00:09:57;2.30;99.90
15083;DHT22;7640;53.116;6.878;2024-01-15T00:12:26;2.30;99.90
15083;DHT22;7640;53.116;6.878;2024-01-15T00:14:56;2.30;99.90
15083;DHT22;7640;53.116;6.878;2024-01-15T00:17:25;2.30;99.90
15083;DHT22;7640;53.116;6.878;2024-01-15T00:19:53;2.20;99.90
15083;DHT22;7640;53.116;6.878;2024-01-15T00:22:23;2.30;99.90
15083;DHT22;7640;53.116;6.878;2024-01-15T00:24:53;2.30;99.90
15083;DHT22;7640;53.116;6.878;2024-01-15T00:27:22;2.30;99.90
15083;DHT22;7640;53.116;6.878;2024-01-15T00:29:51;2.20;99.90
15083;DHT22;7640;53.116;6.878;2024-01-15T00:32:21;2.10;99.90
15083;DHT22;7640;53.116;6.878;2024-01-15T00:34:49;2.00;99.90
15083;DHT22;7640;53.116;6.878;2024-01-15T00:37:18;2.00;99.90
15083;DHT22;7640;53.116;6.878;2024-01-15T00:39:47;2.00;99.90
15083;DHT22;7640;53.116;6.878;2024-01-15T00:42:16;2.10;99.90
15083;DHT22;7640;53.116;6.878;2024-01-15T00:44:45;2.10;99.90
15083;DHT22;7640;53.116;6.878;2024-01-15T00:47:13;2.10;99.90
15083;DHT22;7640;53.116;6.878;2024-01-15T00:49:44;2.10;99.90
15083;DHT22;7640;53.116;6.878;2024-01-15T00:52:12;2.10;99.90
15083;DHT22;7640;53.116;6.878;2024-01-15T00:54:41;2.10;99.90
15083;DHT22;7640;53.116;6.878;2024-01-15T00:57:09;2.20;99.90
15083;DHT22;7640;53.116;6.878;2024-01-15T00:59:38;2.20;99.90
15083;DHT22;7640;53.116;6.878;2024-01-15T01:02:07;2.20;99.90
15083;DHT22;7640;53.116;6.878;2024-01-15T01:04:35;2.20;99.90
15083;DHT22;7640;53.116;6.878;2024-01-15T01:07:05;2.20;99.90
15083;DHT22;7640;53.116;6.878;2024-01-15T01:09:34;2.30;99.90
15083;DHT22;7640;53.116;6.878;2024-01-15T01:12:03;2.30;99.90
15083;DHT22;7640;53.116;6.878;2024-01-15T01:14:32;2.30;99.90
15083;DHT22;7640;53.116;6.878;2024-01-15T01:17:01;2.30;99.90
15083;DHT22;7640;53.116;6.878;2024-01-15T01:19:30;2.30;99.90
15083;DHT22;7640;53.116;6.878;2024-01-15T01:21:58;2.30;99.90
15083;DHT22;7640;53.116;6.878;2024-01-15T01:24:28;2.30;99.90
15083;DHT22;7640;53.116;6.878;2024-01-15T01:26:57;2.30;99.90
15083;DHT22;7640;53.116;6.878;2024-01-15T01:29:25;2.30;99.90
15083;DHT22;7640;53.116;6.878;2024-01-15T01:31:54;2.30;99.90
15083;DHT22;7640;53.116;6.878;2024-01-15T01:34:23;2.30;99.90
15083;DHT22;7640;53.116;6.878;2024-01-15T01:36:52;2.30;99.90
15083;DHT22;7640;53.116;6.878;2024-01-15T01:39:20;2.30;99.90
15083;DHT22;7640;53.116;6.878;2024-01-15T01:41:50;2.30;99.90
15083;DHT22;7640;53.116;6.878;2024-01-15T01:44:19;2.30;99.90
15083;DHT22;7640;53.116;6.878;2024-01-15T01:46:48;2.30;99.90
15083;DHT22;7640;53.116;6.878;2024-01-15T01:49:17;2.30;99.90
15083;DHT22;7640;53.116;6.878;2024-01-15T01:51:46;2.30;99.90
15083;DHT22;7640;53.116;6.878;2024-01-15T01:54:16;2.40;99.90
15083;DHT22;7640;53.116;6.878;2024-01-15T01:56:47;2.30;99.90
15083;DHT22;7640;53.116;6.878;2024-01-15T01:59:18;2.30;99.90
15083;DHT22;7640;53.116;6.878;2024-01-15T02:01:48;2.30;99.90
15083;DHT22;7640;53.116;6.878;2024-01-15T02:04:19;2.30;99.90
15083;DHT22;7640;53.116;6.878;2024-01-15T02:06:48;2.30;99.90
15083;DHT22;7640;53.116;6.878;2024-01-15T02:09:17;2.30;99.90
15083;DHT22;7640;53.116;6.878;2024-01-15T02:11:46;2.30;99.90
15083;DHT22;7640;53.116;6.878;2024-01-15T02:14:16;2.40;99.90
15083;DHT22;7640;53.116;6.878;2024-01-15T02:16:45;2.40;99.90
15083;DHT22;7640;53.116;6.878;2024-01-15T02:19:15;2.50;99.90
15083;DHT22;7640;53.116;6.878;2024-01-15T02:21:45;2.50;99.90
15083;DHT22;7640;53.116;6.878;2024-01-15T02:24:15;2.60;99.90
15083;DHT22;7640;53.116;6.878;2024-01-15T02:26:44;2.60;99.90
15083;DHT22;7640;53.116;6.878;2024-01-15T02:29:12;2.60;99.90
15083;DHT22;7640;53.116;6.878;2024-01-15T02:31:42;2.70;99.90
15083;DHT22;7640;53.116;6.878;2024-01-15T02:34:10;2.70;99.90
15083;DHT22;7640;53.116;6.878;2024-01-15T02:36:39;2.70;99.90
15083;DHT22;7640;53.116;6.878;2024-01-15T02:39:08;2.70;99.90
15083;DHT22;7640;53.116;6.878;2024-01-15T02:41:42;2.70;99.90
15083;DHT22;7640;53.116;6.878;2024-01-15T02:44:10;2.70;99.90
15083;DHT22;7640;53.116;6.878;2024-01-15T02:46:39;2.60;99.90
15083;DHT22;7640;53.116;6.878;2024-01-15T02:49:08;2.60;99.90
15083;DHT22;7640;53.116;6.878;2024-01-15T02:51:36;2.70;99.90
15083;DHT22;7640;53.116;6.878;2024-01-15T02:54:05;2.60;99.90
15083;DHT22;7640;53.116;6.878;2024-01-15T02:56:33;2.70;99.90
15083;DHT22;7640;53.116;6.878;2024-01-15T02:59:03;2.60;99.90
15083;DHT22;7640;53.116;6.878;2024-01-15T03:01:32;2.60;99.90
15083;DHT22;7640;53.116;6.878;2024-01-15T03:04:01;2.60;99.90
15083;DHT22;7640;53.116;6.878;2024-01-15T03:06:30;2.60;99.90
15083;DHT22;7640;53.116;6.878;2024-01-15T03:08:59;2.60;99.90
15083;DHT22;7640;53.116;6.878;2024-01-15T03:11:28;2.60;99.90
15083;DHT22;7640;53.116;6.878;2024-01-15T03:13:56;2.60;99.90
15083;DHT22;7640;53.116;6.878;2024-01-15T03:16:26;2.60;99.90
15083;DHT22;7640;53.116;6.878;2024-01-15T03:18:54;2.60;99.90
15083;DHT22;7640;53.116;6.878;2024-01-15T03:21:23;2.60;99.90
15083;DHT22;7640;53.116;6.878;2024-01-15T03:23:52;2.60;99.90
15083;DHT22;7640;53.116;6.878;2024-01-15T03:26:20;2.60;99.90
15083;DHT22;7640;53.116;6.878;2024-01-15T03:28:49;2.60;99.90
15083;DHT22;7640;53.116;6.878;2024-01-15T03:31:18;2.50;99.90
15083;DHT22;7640;53.116;6.878;2024-01-15T03:33:49;2.60;99.90
15083;DHT22;7640;53.116;6.878;2024-01-15T03:36:17;2.60;99.90
15083;DHT22;7640;53.116;6.878;2024-01-15T03:38:46;2.70;99.90
15083;DHT22;7640;53.116;6.878;2024-01-15T03:41:15;2.70;99.90
15083;DHT22;7640;53.116;6.878;2024-01-15T03:43:45;2.60;99.90
15083;DHT22;7640;53.116;6.878;2024-01-15T03:46:14;2.60;99.90
15083;DHT22;7640;53.116;6.878;2024-01-15T03:48:42;2.60;99.90
15083;DHT22;7640;53.116;6.878;2024-01-15T03:51:12;2.60;99.90
15083;DHT22;7640;53.116;6.878;2024-01-15T03:53:45;2.70;99.90
15083;DHT22;7640;53.116;6.878;2024-01-15T03:56:14;2.60;99.90
15083;DHT22;7640;53.116;6.878;2024-01-15T03:58:43;2.60;99.90
15083;DHT22;7640;53.116;6.878;2024-01-15T04:01:11;2.60;99.90
15083;DHT22;7640;53.116;6.878;2024-01-15T04:03:40;2.60;99.90
15083;DHT22;7640;53.116;6.878;2024-01-15T04:06:09;2.60;99.90
15083;DHT22;7640;53.116;6.878;2024-01-15T04:08:39;2.60;99.90
15083;DHT22;7640;53.116;6.878;2024-01-15T04:11:10;2.60;99.90
15083;DHT22;7640;53.116;6.878;2024-01-15T04:13:39;2.50;99.90
15083;DHT22;7640;53.116;6.878;2024-01-15T04:16:08;2.50;99.90
15083;DHT22;7640;53.116;6.878;2024-01-15T04:18:37;2.50;99.90
15083;DHT22;7640;53.116;6.878;2024-01-15T04:21:06;2.50;99.90
15083;DHT22;7640;53.116;6.878;2024-01-15T04:23:35;2.50;99.90
15083;DHT22;7640;53.116;6.878;2024-01-15T04:26:05;2.40;99.90
15083;DHT22;7640;53.116;6.878;2024-01-15T04:28:33;2.40;99.90
15083;DHT22;7640;53.116;6.878;2024-01-15T04:31:02;2.40;99.90
15083;DHT22;7640;53.116;6.878;2024-01-15T04:33:30;2.40;99.90
15083;DHT22;7640;53.116;6.878;2024-01-15T04:36:02;2.40;99.90
15083;DHT22;7640;53.116;6.878;2024-01-15T04:38:31;2.40;99.90
15083;DHT22;7640;53.116;6.878;2024-01-15T04:41:00;2.50;99.90
15083;DHT22;7640;53.116;6.878;2024-01-15T04:43:30;2.50;99.90
15083;DHT22;7640;53.116;6.878;2024-01-15T04:45:58;2.50;99.90
15083;DHT22;7640;53.116;6.878;2024-01-15T04:48:28;2.50;99.90
15083;DHT22;7640;53.116;6.878;2024-01-15T04:50:56;2.60;99.90
15083;DHT22;7640;53.116;6.878;2024-01-15T04:53:25;2.60;99.90
15083;DHT22;7640;53.116;6.878;2024-01-15T04:55:54;2.70;99.90
15083;DHT22;7640;53.116;6.878;2024-01-15T04:58:23;2.70;99.90
15083;DHT22;7640;53.116;6.878;2024-01-15T05:00:55;2.70;99.90
15083;DHT22;7640;53.116;6.878;2024-01-15T05:03:24;2.70;99.90
15083;DHT22;7640;53.116;6.878;2024-01-15T05:05:53;2.60;99.90
15083;DHT22;7640;53.116;6.878;2024-01-15T05:08:22;2.60;99.90
15083;DHT22;7640;53.116;6.878;2024-01-15T05:10:50;2.50;99.90
15083;DHT22;7640;53.116;6.878;2024-01-15T05:13:19;2.50;99.90
15083;DHT22;7640;53.116;6.878;2024-01-15T05:15:48;2.50;99.90
15083;DHT22;7640;53.116;6.878;2024-01-15T05:18:18;2.40;99.90
15083;DHT22;7640;53.116;6.878;2024-01-15T05:20:47;2.30;99.90
15083;DHT22;7640;53.116;6.878;2024-01-15T05:23:16;2.30;99.90
15083;DHT22;7640;53.116;6.878;2024-01-15T05:25:44;2.20;99.90
15083;DHT22;7640;53.116;6.878;2024-01-15T05:28:14;2.20;99.90
15083;DHT22;7640;53.116;6.878;2024-01-15T05:30:43;2.20;99.90
15083;DHT22;7640;53.116;6.878;2024-01-15T05:33:11;2.10;99.90
15083;DHT22;7640;53.116;6.878;2024-01-15T05:35:42;2.10;99.90
15083;DHT22;7640;53.116;6.878;2024-01-15T05:38:11;2.10;99.90
15083;DHT22;7640;53.116;6.878;2024-01-15T05:40:40;2.10;99.90
15083;DHT22;7640;53.116;6.878;2024-01-15T05:43:08;2.10;99.90
15083;DHT22;7640;53.116;6.878;2024-01-15T05:45:38;2.00;99.90
15083;DHT22;7640;53.116;6.878;2024-01-15T05:48:07;2.00;99.90
15083;DHT22;7640;53.116;6.878;2024-01-15T05:50:36;2.10;99.90
15083;DHT22;7640;53.116;6.878;2024-01-15T05:53:06;2.00;99.90
15083;DHT22;7640;53.116;6.878;2024-01-15T05:55:36;2.00;99.90
15083;DHT22;7640;53.116;6.878;2024-01-15T05:58:05;2.00;99.90
15083;DHT22;7640;53.116;6.878;2024-01-15T06:00:35;2.00;99.90
15083;DHT22;7640;53.116;6.878;2024-01-15T06:03:05;2.00;99.90
15083;DHT22;7640;53.116;6.878;2024-01-15T06:05:34;2.00;99.90
15083;DHT22;7640;53.116;6.878;2024-01-15T06:08:02;2.00;99.90
15083;DHT22;7640;53.116;6.878;2024-01-15T06:10:33;2.00;99.90
15083;DHT22;7640;53.116;6.878;2024-01-15T06:13:01;2.00;99.90
15083;DHT22;7640;53.116;6.878;2024-01-15T06:15:30;2.00;99.90
15083;DHT22;7640;53.116;6.878;2024-01-15T06:17:59;2.00;99.90
15083;DHT22;7640;53.116;6.878;2024-01-15T06:20:28;2.00;99.90
15083;DHT22;7640;53.116;6.878;2024-01-15T06:22:56;2.00;99.90
15083;DHT22;7640;53.116;6.878;2024-01-15T06:25:25;2.00;99.90
15083;DHT22;7640;53.116;6.878;2024-01-15T06:27:55;2.00;99.90
15083;DHT22;7640;53.116;6.878;2024-01-15T06:30:24;2.00;99.90
15083;DHT22;7640;53.116;6.878;2024-01-15T06:32:52;2.00;99.90
15083;DHT22;7640;53.116;6.878;2024-01-15T06:35:21;2.00;99.90
15083;DHT22;7640;53.116;6.878;2024-01-15T06:37:50;2.00;99.90
15083;DHT22;7640;53.116;6.878;2024-01-15T06:40:18;2.00;99.90
15083;DHT22;7640;53.116;6.878;2024-01-15T06:42:47;2.00;99.90
15083;DHT22;7640;53.116;6.878;2024-01-15T06:45:18;2.00;99.90
15083;DHT22;7640;53.116;6.878;2024-01-15T06:47:46;2.00;99.90
15083;DHT22;7640;53.116;6.878;2024-01-15T06:50:15;2.00;99.90
15083;DHT22;7640;53.116;6.878;2024-01-15T06:52:43;2.00;99.90
15083;DHT22;7640;53.116;6.878;2024-01-15T06:55:12;2.00;99.90
15083;DHT22;7640;53.116;6.878;2024-01-15T06:57:41;2.00;99.90
15083;DHT22;7640;53.116;6.878;2024-01-15T07:00:11;2.00;99.90
15083;DHT22;7640;53.116;6.878;2024-01-15T07:02:43;2.00;99.90
15083;DHT22;7640;53.116;6.878;2024-01-15T07:05:12;2.00;99.90
15083;DHT22;7640;53.116;6.878;2024-01-15T07:07:41;2.10;99.90
15083;DHT22;7640;53.116;6.878;2024-01-15T07:10:09;2.10;99.90
15083;DHT22;7640;53.116;6.878;2024-01-15T07:12:38;2.00;99.90
15083;DHT22;7640;53.116;6.878;2024-01-15T07:15:07;2.00;99.90
15083;DHT22;7640;53.116;6.878;2024-01-15T07:17:37;2.00;99.90
15083;DHT22;7640;53.116;6.878;2024-01-15T07:20:09;2.10;99.90
15083;DHT22;7640;53.116;6.878;2024-01-15T07:22:39;2.00;99.90
15083;DHT22;7640;53.116;6.878;2024-01-15T07:25:07;2.00;99.90
15083;DHT22;7640;53.116;6.878;2024-01-15T07:27:36;2.10;99.90
15083;DHT22;7640;53.116;6.878;2024-01-15T07:30:06;2.10;99.90
15083;DHT22;7640;53.116;6.878;2024-01-15T07:32:36;2.10;99.90
15083;DHT22;7640;53.116;6.878;2024-01-15T07:35:05;2.10;99.90
15083;DHT22;7640;53.116;6.878;2024-01-15T07:37:35;2.10;99.90
15083;DHT22;7640;53.116;6.878;2024-01-15T07:40:05;2.10;99.90
15083;DHT22;7640;53.116;6.878;2024-01-15T07:42:35;2.10;99.90
15083;DHT22;7640;53.116;6.878;2024-01-15T07:45:05;2.10;99.90
15083;DHT22;7640;53.116;6.878;2024-01-15T07:47:34;2.00;99.90
15083;DHT22;7640;53.116;6.878;2024-01-15T07:50:03;2.00;99.90
15083;DHT22;7640;53.116;6.878;2024-01-15T07:52:33;1.90;99.90
15083;DHT22;7640;53.116;6.878;2024-01-15T07:55:03;2.00;99.90
15083;DHT22;7640;53.116;6.878;2024-01-15T07:57:32;1.90;99.90
15083;DHT22;7640;53.116;6.878;2024-01-15T08:00:03;1.70;99.90
15083;DHT22;7640;53.116;6.878;2024-01-15T08:02:33;1.90;99.90
15083;DHT22;7640;53.116;6.878;2024-01-15T08:05:04;1.90;99.90
15083;DHT22;7640;53.116;6.878;2024-01-15T08:07:34;2.00;99.90
15083;DHT22;7640;53.116;6.878;2024-01-15T08:10:03;2.00;99.90
15083;DHT22;7640;53.116;6.878;2024-01-15T08:12:32;2.00;99.90
15083;DHT22;7640;53.116;6.878;2024-01-15T08:15:00;2.00;99.90
15083;DHT22;7640;53.116;6.878;2024-01-15T08:17:29;2.10;99.90
15083;DHT22;7640;53.116;6.878;2024-01-15T08:19:59;2.20;99.90
15083;DHT22;7640;53.116;6.878;2024-01-15T08:22:28;2.10;99.90
15083;DHT22;7640;53.116;6.878;2024-01-15T08:24:59;2.20;99.90
15083;DHT22;7640;53.116;6.878;2024-01-15T08:27:29;2.10;99.90
15083;DHT22;7640;53.116;6.878;2024-01-15T08:29:58;2.10;99.90
15083;DHT22;7640;53.116;6.878;2024-01-15T08:32:26;2.10;99.90
15083;DHT22;7640;53.116;6.878;2024-01-15T08:34:55;2.10;99.90
15083;DHT22;7640;53.116;6.878;2024-01-15T08:37:24;2.10;99.90
15083;DHT22;7640;53.116;6.878;2024-01-15T08:39:52;2.20;99.90
15083;DHT22;7640;53.116;6.878;2024-01-15T08:42:23;2.10;99.90
15083;DHT22;7640;53.116;6.878;2024-01-15T08:44:53;2.10;99.90
15083;DHT22;7640;53.116;6.878;2024-01-15T08:47:22;2.10;99.90
15083;DHT22;7640;53.116;6.878;2024-01-15T08:49:50;2.10;99.90
15083;DHT22;7640;53.116;6.878;2024-01-15T08:52:19;2.10;99.90
15083;DHT22;7640;53.116;6.878;2024-01-15T08:54:48;2.10;99.90
15083;DHT22;7640;53.116;6.878;2024-01-15T08:57:17;2.10;99.90
15083;DHT22;7640;53.116;6.878;2024-01-15T08:59:47;2.20;99.90
15083;DHT22;7640;53.116;6.878;2024-01-15T09:02:16;2.20;99.90
15083;DHT22;7640;53.116;6.878;2024-01-15T09:04:44;2.30;99.90
15083;DHT22;7640;53.116;6.878;2024-01-15T09:07:13;2.30;99.90
15083;DHT22;7640;53.116;6.878;2024-01-15T09:09:42;2.40;99.90
15083;DHT22;7640;53.116;6.878;2024-01-15T09:12:11;2.50;99.90
15083;DHT22;7640;53.116;6.878;2024-01-15T09:14:42;2.40;99.90
15083;DHT22;7640;53.116;6.878;2024-01-15T09:17:12;1.60;99.90
15083;DHT22;7640;53.116;6.878;2024-01-15T09:19:41;2.50;99.90
15083;DHT22;7640;53.116;6.878;2024-01-15T09:22:10;2.50;99.90
15083;DHT22;7640;53.116;6.878;2024-01-15T09:24:40;2.50;99.90
15083;DHT22;7640;53.116;6.878;2024-01-15T09:27:09;2.40;99.90
15083;DHT22;7640;53.116;6.878;2024-01-15T09:29:38;2.40;99.90
15083;DHT22;7640;53.116;6.878;2024-01-15T09:32:08;2.40;99.90
15083;DHT22;7640;53.116;6.878;2024-01-15T09:34:39;2.30;99.90
15083;DHT22;7640;53.116;6.878;2024-01-15T09:37:08;2.40;99.90
15083;DHT22;7640;53.116;6.878;2024-01-15T09:39:45;2.40;99.90
15083;DHT22;7640;53.116;6.878;2024-01-15T09:42:15;2.40;99.90
15083;DHT22;7640;53.116;6.878;2024-01-15T09:44:48;2.40;99.90
15083;DHT22;7640;53.116;6.878;2024-01-15T09:47:18;2.50;99.90
15083;DHT22;7640;53.116;6.878;2024-01-15T09:49:50;2.50;99.90
15083;DHT22;7640;53.116;6.878;2024-01-15T09:52:19;2.50;99.90
15083;DHT22;7640;53.116;6.878;2024-01-15T09:54:49;2.50;99.90
15083;DHT22;7640;53.116;6.878;2024-01-15T09:57:18;2.50;99.90
15083;DHT22;7640;53.116;6.878;2024-01-15T09:59:47;2.60;99.90
15083;DHT22;7640;53.116;6.878;2024-01-15T10:02:17;2.60;99.90
15083;DHT22;7640;53.116;6.878;2024-01-15T10:04:46;2.60;99.90
15083;DHT22;7640;53.116;6.878;2024-01-15T10:07:16;2.70;99.90
15083;DHT22;7640;53.116;6.878;2024-01-15T10:09:46;2.70;99.90
15083;DHT22;7640;53.116;6.878;2024-01-15T10:12:15;2.70;99.90
15083;DHT22;7640;53.116;6.878;2024-01-15T10:14:44;2.60;99.90
15083;DHT22;7640;53.116;6.878;2024-01-15T10:17:13;2.70;99.90
15083;DHT22;7640;53.116;6.878;2024-01-15T10:19:45;2.70;99.90
15083;DHT22;7640;53.116;6.878;2024-01-15T10:22:18;2.80;99.90
15083;DHT22;7640;53.116;6.878;2024-01-15T10:24:47;2.90;99.90
15083;DHT22;7640;53.116;6.878;2024-01-15T10:27:16;3.00;99.90
15083;DHT22;7640;53.116;6.878;2024-01-15T10:29:45;3.00;99.90
15083;DHT22;7640;53.116;6.878;2024-01-15T10:32:13;3.00;99.90
15083;DHT22;7640;53.116;6.878;2024-01-15T10:34:42;2.90;99.90
15083;DHT22;7640;53.116;6.878;2024-01-15T10:37:11;2.80;99.90
15083;DHT22;7640;53.116;6.878;2024-01-15T10:39:41;2.80;99.90
15083;DHT22;7640;53.116;6.878;2024-01-15T10:42:09;2.80;99.90
15083;DHT22;7640;53.116;6.878;2024-01-15T10:44:38;2.70;99.90
15083;DHT22;7640;53.116;6.878;2024-01-15T10:47:07;2.70;99.90
15083;DHT22;7640;53.116;6.878;2024-01-15T10:49:35;2.60;99.90
15083;DHT22;7640;53.116;6.878;2024-01-15T10:52:05;2.70;99.90
15083;DHT22;7640;53.116;6.878;2024-01-15T10:54:35;2.70;99.90
15083;DHT22;7640;53.116;6.878;2024-01-15T10:57:07;2.70;99.90
15083;DHT22;7640;53.116;6.878;2024-01-15T10:59:36;2.80;99.90
15083;DHT22;7640;53.116;6.878;2024-01-15T11:02:05;2.90;99.90
15083;DHT22;7640;53.116;6.878;2024-01-15T11:04:34;3.00;99.90
15083;DHT22;7640;53.116;6.878;2024-01-15T11:07:03;3.20;99.90
15083;DHT22;7640;53.116;6.878;2024-01-15T11:09:32;3.30;99.90
15083;DHT22;7640;53.116;6.878;2024-01-15T11:12:10;3.40;99.90
15083;DHT22;7640;53.116;6.878;2024-01-15T11:14:40;3.50;99.90
15083;DHT22;7640;53.116;6.878;2024-01-15T11:17:11;3.40;99.90
15083;DHT22;7640;53.116;6.878;2024-01-15T11:19:43;3.30;99.90
15083;DHT22;7640;53.116;6.878;2024-01-15T11:22:47;3.20;99.90
15083;DHT22;7640;53.116;6.878;2024-01-15T11:25:18;3.10;99.90
15083;DHT22;7640;53.116;6.878;2024-01-15T11:27:50;3.00;99.90
15083;DHT22;7640;53.116;6.878;2024-01-15T11:30:24;3.00;99.90
15083;DHT22;7640;53.116;6.878;2024-01-15T11:32:54;2.90;99.90
15083;DHT22;7640;53.116;6.878;2024-01-15T11:35:23;3.00;99.90
15083;DHT22;7640;53.116;6.878;2024-01-15T11:37:58;3.10;99.90
15083;DHT22;7640;53.116;6.878;2024-01-15T11:40:38;3.30;99.90
15083;DHT22;7640;53.116;6.878;2024-01-15T11:43:07;3.30;99.90
15083;DHT22;7640;53.116;6.878;2024-01-15T11:45:37;3.20;99.90
15083;DHT22;7640;53.116;6.878;2024-01-15T11:48:15;3.20;99.90
15083;DHT22;7640;53.116;6.878;2024-01-15T11:50:46;3.20;99.90
15083;DHT22;7640;53.116;6.878;2024-01-15T11:53:21;3.30;99.90
15083;DHT22;7640;53.116;6.878;2024-01-15T11:55:58;3.40;99.90
15083;DHT22;7640;53.116;6.878;2024-01-15T11:58:29;3.50;99.90
15083;DHT22;7640;53.116;6.878;2024-01-15T12:00:58;3.60;99.90
15083;DHT22;7640;53.116;6.878;2024-01-15T12:03:28;3.50;99.90
15083;DHT22;7640;53.116;6.878;2024-01-15T12:05:56;3.50;99.90
15083;DHT22;7640;53.116;6.878;2024-01-15T12:08:27;3.40;99.90
15083;DHT22;7640;53.116;6.878;2024-01-15T12:10:56;3.40;99.90
15083;DHT22;7640;53.116;6.878;2024-01-15T12:13:24;3.40;99.90
15083;DHT22;7640;53.116;6.878;2024-01-15T12:15:55;3.30;99.90
15083;DHT22;7640;53.116;6.878;2024-01-15T12:18:24;3.30;99.90
15083;DHT22;7640;53.116;6.878;2024-01-15T12:20:54;3.30;99.90
15083;DHT22;7640;53.116;6.878;2024-01-15T12:23:24;3.30;99.90
15083;DHT22;7640;53.116;6.878;2024-01-15T12:25:54;3.30;99.90
15083;DHT22;7640;53.116;6.878;2024-01-15T12:28:23;3.20;99.90
15083;DHT22;7640;53.116;6.878;2024-01-15T12:30:56;3.10;99.90
15083;DHT22;7640;53.116;6.878;2024-01-15T12:33:27;3.10;99.90
15083;DHT22;7640;53.116;6.878;2024-01-15T12:35:56;3.00;99.90
15083;DHT22;7640;53.116;6.878;2024-01-15T12:38:24;3.00;99.90
15083;DHT22;7640;53.116;6.878;2024-01-15T12:40:53;3.00;99.90
15083;DHT22;7640;53.116;6.878;2024-01-15T12:43:22;3.00;99.90
15083;DHT22;7640;53.116;6.878;2024-01-15T12:45:51;3.00;99.90
15083;DHT22;7640;53.116;6.878;2024-01-15T12:48:21;3.00;99.90
15083;DHT22;7640;53.116;6.878;2024-01-15T12:50:52;3.00;99.90
15083;DHT22;7640;53.116;6.878;2024-01-15T12:53:21;3.10;99.90
15083;DHT22;7640;53.116;6.878;2024-01-15T12:55:49;3.10;99.90
15083;DHT22;7640;53.116;6.878;2024-01-15T12:58:18;3.10;99.90
15083;DHT22;7640;53.116;6.878;2024-01-15T13:00:47;3.20;99.90
15083;DHT22;7640;53.116;6.878;2024-01-15T13:03:16;3.20;99.90
15083;DHT22;7640;53.116;6.878;2024-01-15T13:05:46;3.20;99.90
15083;DHT22;7640;53.116;6.878;2024-01-15T13:08:16;3.30;99.90
15083;DHT22;7640;53.116;6.878;2024-01-15T13:10:44;3.30;99.90
15083;DHT22;7640;53.116;6.878;2024-01-15T13:13:13;3.40;99.90
15083;DHT22;7640;53.116;6.878;2024-01-15T13:15:42;3.40;99.90
15083;DHT22;7640;53.116;6.878;2024-01-15T13:18:11;3.40;99.90
15083;DHT22;7640;53.116;6.878;2024-01-15T13:20:40;3.40;99.90
15083;DHT22;7640;53.116;6.878;2024-01-15T13:23:10;3.50;99.90
15083;DHT22;7640;53.116;6.878;2024-01-15T13:25:38;3.50;99.90
15083;DHT22;7640;53.116;6.878;2024-01-15T13:28:07;3.40;99.90
15083;DHT22;7640;53.116;6.878;2024-01-15T13:30:36;3.40;99.90
15083;DHT22;7640;53.116;6.878;2024-01-15T13:33:05;3.50;99.90
15083;DHT22;7640;53.116;6.878;2024-01-15T13:35:35;3.50;99.90
15083;DHT22;7640;53.116;6.878;2024-01-15T13:38:04;3.50;99.90
15083;DHT22;7640;53.116;6.878;2024-01-15T13:40:34;3.60;99.90
15083;DHT22;7640;53.116;6.878;2024-01-15T13:43:02;3.60;99.90
15083;DHT22;7640;53.116;6.878;2024-01-15T13:45:35;3.50;99.90
15083;DHT22;7640;53.116;6.878;2024-01-15T13:48:05;3.50;99.90
15083;DHT22;7640;53.116;6.878;2024-01-15T13:50:35;3.50;99.90
15083;DHT22;7640;53.116;6.878;2024-01-15T13:53:04;3.50;99.90
15083;DHT22;7640;53.116;6.878;2024-01-15T13:55:34;3.50;99.90
15083;DHT22;7640;53.116;6.878;2024-01-15T13:58:02;3.40;99.90
15083;DHT22;7640;53.116;6.878;2024-01-15T14:00:33;3.40;99.90
15083;DHT22;7640;53.116;6.878;2024-01-15T14:03:02;3.40;99.90
15083;DHT22;7640;53.116;6.878;2024-01-15T14:05:30;3.40;99.90
15083;DHT22;7640;53.116;6.878;2024-01-15T14:08:00;3.40;99.90
15083;DHT22;7640;53.116;6.878;2024-01-15T14:10:28;3.40;99.90
15083;DHT22;7640;53.116;6.878;2024-01-15T14:12:58;3.40;99.90
15083;DHT22;7640;53.116;6.878;2024-01-15T14:15:27;3.30;99.90
15083;DHT22;7640;53.116;6.878;2024-01-15T14:17:56;3.20;99.90
15083;DHT22;7640;53.116;6.878;2024-01-15T14:20:25;3.00;99.90
15083;DHT22;7640;53.116;6.878;2024-01-15T14:22:54;2.90;99.90
15083;DHT22;7640;53.116;6.878;2024-01-15T14:25:23;2.80;99.90
15083;DHT22;7640;53.116;6.878;2024-01-15T14:27:52;2.70;99.90
15083;DHT22;7640;53.116;6.878;2024-01-15T14:30:22;2.70;99.90
15083;DHT22;7640;53.116;6.878;2024-01-15T14:32:50;2.70;99.90
15083;DHT22;7640;53.116;6.878;2024-01-15T14:35:19;2.70;99.90
15083;DHT22;7640;53.116;6.878;2024-01-15T14:37:48;2.70;99.90
15083;DHT22;7640;53.116;6.878;2024-01-15T14:40:16;2.60;99.90
15083;DHT22;7640;53.116;6.878;2024-01-15T14:42:45;2.60;99.90
15083;DHT22;7640;53.116;6.878;2024-01-15T14:45:14;2.60;99.90
15083;DHT22;7640;53.116;6.878;2024-01-15T14:47:44;2.60;99.90
15083;DHT22;7640;53.116;6.878;2024-01-15T14:50:12;2.60;99.90
15083;DHT22;7640;53.116;6.878;2024-01-15T14:52:41;2.60;99.90
15083;DHT22;7640;53.116;6.878;2024-01-15T14:55:12;2.60;99.90
15083;DHT22;7640;53.116;6.878;2024-01-15T14:57:41;2.70;99.90
15083;DHT22;7640;53.116;6.878;2024-01-15T15:00:10;2.80;99.90
15083;DHT22;7640;53.116;6.878;2024-01-15T15:02:46;2.70;99.90
15083;DHT22;7640;53.116;6.878;2024-01-15T15:05:20;2.70;99.90
15083;DHT22;7640;53.116;6.878;2024-01-15T15:07:49;2.70;99.90
15083;DHT22;7640;53.116;6.878;2024-01-15T15:10:17;2.70;99.90
15083;DHT22;7640;53.116;6.878;2024-01-15T15:12:46;2.70;99.90
15083;DHT22;7640;53.116;6.878;2024-01-15T15:15:15;2.70;99.90
15083;DHT22;7640;53.116;6.878;2024-01-15T15:17:50;2.70;99.90
15083;DHT22;7640;53.116;6.878;2024-01-15T15:20:18;2.70;99.90
15083;DHT22;7640;53.116;6.878;2024-01-15T15:22:47;2.70;99.90
15083;DHT22;7640;53.116;6.878;2024-01-15T15:25:16;2.60;99.90
15083;DHT22;7640;53.116;6.878;2024-01-15T15:27:45;2.60;99.90
15083;DHT22;7640;53.116;6.878;2024-01-15T15:30:14;2.50;99.90
15083;DHT22;7640;53.116;6.878;2024-01-15T15:32:43;2.50;99.90
15083;DHT22;7640;53.116;6.878;2024-01-15T15:35:14;2.40;99.90
15083;DHT22;7640;53.116;6.878;2024-01-15T15:37:44;2.40;99.90
15083;DHT22;7640;53.116;6.878;2024-01-15T15:40:13;2.40;99.90
15083;DHT22;7640;53.116;6.878;2024-01-15T15:42:42;2.40;99.90
15083;DHT22;7640;53.116;6.878;2024-01-15T15:45:12;2.40;99.90
15083;DHT22;7640;53.116;6.878;2024-01-15T15:47:41;2.40;99.90
15083;DHT22;7640;53.116;6.878;2024-01-15T15:50:10;2.30;99.90
15083;DHT22;7640;53.116;6.878;2024-01-15T15:52:40;2.30;99.90
15083;DHT22;7640;53.116;6.878;2024-01-15T15:55:09;2.30;99.90
15083;DHT22;7640;53.116;6.878;2024-01-15T15:57:38;2.30;99.90
15083;DHT22;7640;53.116;6.878;2024-01-15T16:00:07;2.20;99.90
15083;DHT22;7640;53.116;6.878;2024-01-15T16:02:38;2.30;99.90
15083;DHT22;7640;53.116;6.878;2024-01-15T16:05:07;2.30;99.90
15083;DHT22;7640;53.116;6.878;2024-01-15T16:07:37;2.30;99.90
15083;DHT22;7640;53.116;6.878;2024-01-15T16:10:08;2.30;99.90
15083;DHT22;7640;53.116;6.878;2024-01-15T16:12:37;2.20;99.90
15083;DHT22;7640;53.116;6.878;2024-01-15T16:15:18;2.20;99.90